Time;durP1;ratioP1;P1;durP2;ratioP2;P2;SDS_P1;SDS_P2;PMS_P1;PMS_P2;Temp;Humidity;BMP_temperature;BMP_pressure;BME280_temperature;BME280_humidity;BME280_pressure;Samples;Min_cycle;Max_cycle;Signal;HPM_P1;HPM_P2
2021/09/13 00:02:22;;;;;;;13.48;9.20;;;;;;;11.39;80.66;93101.94;5069857;28;20409;-80
2021/09/13 00:04:49;;;;;;;15.30;10.13;;;;;;;11.36;80.85;93109.06;5069544;28;20509;-79
2021/09/13 00:07:16;;;;;;;11.23;9.48;;;;;;;11.50;80.50;93122.53;5069784;28;20201;-80
2021/09/13 00:09:42;;;;;;;11.52;9.55;;;;;;;11.47;80.37;93119.63;5069722;28;20090;-79
2021/09/13 00:12:11;;;;;;;15.73;10.82;;;;;;;11.32;81.47;93117.44;5069461;28;20055;-79
2021/09/13 00:14:38;;;;;;;17.00;11.05;;;;;;;11.38;81.26;93120.94;5069653;28;20395;-79
2021/09/13 00:17:05;;;;;;;17.25;12.20;;;;;;;11.30;81.35;93114.31;5069774;28;20414;-79
2021/09/13 00:19:32;;;;;;;32.60;18.52;;;;;;;11.25;81.51;93121.88;5069677;28;20094;-79
2021/09/13 00:21:59;;;;;;;41.00;21.40;;;;;;;11.25;82.01;93120.06;5069520;28;20169;-79
2021/09/13 00:24:26;;;;;;;35.67;20.60;;;;;;;11.27;81.71;93118.09;5069427;28;20049;-79
2021/09/13 00:26:53;;;;;;;38.47;22.48;;;;;;;11.07;81.90;93111.38;5069677;28;20048;-79
2021/09/13 00:29:21;;;;;;;39.95;22.30;;;;;;;11.20;81.61;93127.69;5069405;28;20052;-79
2021/09/13 00:31:48;;;;;;;77.18;38.75;;;;;;;11.20;81.06;93128.44;5069598;28;20052;-79
2021/09/13 00:34:15;;;;;;;230.50;104.90;;;;;;;11.08;82.08;93112.16;5069383;28;20048;-79
2021/09/13 00:36:42;;;;;;;134.75;65.43;;;;;;;11.09;81.02;93111.97;5069461;28;20414;-79
2021/09/13 00:39:09;;;;;;;156.98;75.10;;;;;;;11.12;81.27;93115.09;5069127;28;20051;-79
2021/09/13 00:41:35;;;;;;;105.47;50.92;;;;;;;11.03;81.52;93120.53;5069296;28;20052;-79
2021/09/13 00:44:03;;;;;;;141.93;70.47;;;;;;;11.14;81.40;93126.72;5068551;28;20493;-79
2021/09/13 00:46:31;;;;;;;192.93;98.47;;;;;;;11.01;81.96;93122.53;5069084;28;20063;-79
2021/09/13 00:48:58;;;;;;;166.50;89.93;;;;;;;11.07;81.25;93124.22;5069359;28;20044;-79
2021/09/13 00:51:25;;;;;;;183.60;96.57;;;;;;;11.07;81.81;93124.22;5069120;28;20052;-79
2021/09/13 00:53:52;;;;;;;187.80;113.78;;;;;;;10.97;81.24;93126.50;5069346;28;20091;-79
2021/09/13 00:56:19;;;;;;;119.18;77.18;;;;;;;10.95;81.62;93124.19;5069154;28;20414;-79
2021/09/13 00:58:47;;;;;;;118.97;72.53;;;;;;;10.88;81.65;93125.25;5068903;28;20055;-79
2021/09/13 01:01:14;;;;;;;106.80;75.20;;;;;;;10.80;82.80;93134.78;5069356;28;20083;-79
2021/09/13 01:03:42;;;;;;;125.53;95.13;;;;;;;10.63;82.47;93113.22;5069518;28;20134;-79
2021/09/13 01:06:09;;;;;;;70.55;56.13;;;;;;;10.62;81.57;93106.50;5068972;28;20048;-80
2021/09/13 01:08:36;;;;;;;104.43;90.50;;;;;;;10.71;82.40;93128.34;5068837;28;20078;-79
2021/09/13 01:11:03;;;;;;;87.97;78.32;;;;;;;10.63;82.80;93124.28;5069527;28;20099;-81
2021/09/13 01:13:31;;;;;;;85.63;76.68;;;;;;;10.42;83.02;93097.19;5068967;28;20486;-80
2021/09/13 01:16:04;;;;;;;86.43;77.20;;;;;;;10.66;83.33;93123.84;5069136;28;20052;-80
2021/09/13 01:18:30;;;;;;;64.53;57.47;;;;;;;10.59;82.64;93120.56;5069245;28;20048;-80
2021/09/13 01:21:00;;;;;;;48.72;43.72;;;;;;;10.64;82.82;93127.66;5068857;28;20052;-80
2021/09/13 01:23:29;;;;;;;45.15;40.45;;;;;;;10.43;83.01;93109.81;5068910;28;20486;-79
2021/09/13 01:25:56;;;;;;;45.40;40.67;;;;;;;10.63;83.07;93131.19;5069227;28;20548;-80
2021/09/13 01:28:23;;;;;;;45.05;40.47;;;;;;;10.52;83.30;93109.56;5068747;28;20588;-78
2021/09/13 01:30:50;;;;;;;41.90;37.70;;;;;;;10.60;82.77;93126.50;5069278;28;20057;-79
2021/09/13 01:33:17;;;;;;;41.03;36.70;;;;;;;10.61;82.72;93131.41;5068585;28;20048;-80
2021/09/13 01:35:43;;;;;;;33.60;30.02;;;;;;;10.63;82.66;93133.75;5068886;28;20052;-78
2021/09/13 01:38:11;;;;;;;30.17;26.98;;;;;;;10.58;83.11;93136.16;5068835;28;20045;-79
2021/09/13 01:40:39;;;;;;;25.98;23.45;;;;;;;10.54;82.96;93135.81;5068409;28;20063;-80
2021/09/13 01:43:06;;;;;;;24.88;21.05;;;;;;;10.47;83.33;93135.09;5068771;28;20048;-79
2021/09/13 01:45:35;;;;;;;20.02;17.85;;;;;;;10.41;83.79;93140.03;5068514;28;20048;-79
2021/09/13 01:48:02;;;;;;;19.00;16.73;;;;;;;10.40;83.54;93137.66;5068951;28;20060;-79
2021/09/13 01:50:29;;;;;;;16.13;14.02;;;;;;;10.38;83.78;93142.25;5068558;28;20409;-79
2021/09/13 01:52:56;;;;;;;13.98;11.98;;;;;;;10.35;84.08;93140.88;5068715;28;20064;-79
2021/09/13 01:55:23;;;;;;;13.18;11.43;;;;;;;10.42;83.16;93149.31;5070555;28;20053;-79
2021/09/13 01:57:51;;;;;;;12.98;11.52;;;;;;;10.45;83.49;93148.13;5072117;28;20060;-79
2021/09/13 02:00:18;;;;;;;13.05;10.20;;;;;;;10.36;83.86;93144.22;5072147;28;20406;-80
2021/09/13 02:02:45;;;;;;;12.00;10.70;;;;;;;10.40;83.32;93146.16;5072356;28;20056;-80
2021/09/13 02:05:12;;;;;;;11.60;9.88;;;;;;;10.38;83.47;93149.94;5072262;28;20135;-80
2021/09/13 02:07:39;;;;;;;12.63;10.00;;;;;;;10.36;83.21;93150.16;5072076;28;20040;-80
2021/09/13 02:10:07;;;;;;;17.33;10.50;;;;;;;10.37;83.12;93146.56;5071982;28;20055;-80
2021/09/13 02:12:34;;;;;;;14.48;10.27;;;;;;;10.32;83.04;93146.41;5072076;28;20048;-80
2021/09/13 02:15:02;;;;;;;13.93;11.13;;;;;;;10.26;83.40;93139.56;5072240;28;20468;-80
2021/09/13 02:17:29;;;;;;;14.18;10.52;;;;;;;10.31;82.88;93147.41;5071905;28;20044;-79
2021/09/13 02:19:56;;;;;;;14.07;9.35;;;;;;;10.26;83.34;93150.63;5071852;28;20048;-80
2021/09/13 02:22:23;;;;;;;14.45;10.27;;;;;;;10.25;83.59;93148.25;5071968;28;20066;-79
2021/09/13 02:24:49;;;;;;;10.65;9.05;;;;;;;10.29;83.44;93146.84;5071953;28;20057;-79
2021/09/13 02:27:16;;;;;;;13.57;9.98;;;;;;;10.22;83.80;93140.97;5071737;28;20045;-79
2021/09/13 02:29:43;;;;;;;12.85;10.75;;;;;;;10.10;83.92;93125.47;5071885;28;20056;-79
2021/09/13 02:32:11;;;;;;;13.98;9.75;;;;;;;10.23;84.17;93147.69;5071817;28;20048;-80
2021/09/13 02:34:38;;;;;;;14.18;10.48;;;;;;;10.21;83.84;93153.03;5071372;28;20045;-79
2021/09/13 02:37:05;;;;;;;18.27;10.65;;;;;;;10.15;84.31;93149.50;5071755;28;20056;-79
2021/09/13 02:39:32;;;;;;;13.15;9.43;;;;;;;10.02;85.22;93142.69;5071524;28;20055;-79
2021/09/13 02:41:59;;;;;;;14.75;10.23;;;;;;;9.80;85.43;93126.03;5071070;28;20044;-80
2021/09/13 02:44:26;;;;;;;13.50;10.07;;;;;;;9.93;85.90;93161.09;5071529;28;20049;-80
2021/09/13 02:46:53;;;;;;;13.93;10.30;;;;;;;9.97;85.75;93154.56;5071712;28;20147;-80
2021/09/13 02:49:21;;;;;;;17.08;9.88;;;;;;;9.92;85.81;93154.41;5071071;28;20055;-80
2021/09/13 02:51:48;;;;;;;14.73;10.38;;;;;;;9.96;85.58;93158.91;5071389;28;20051;-80
2021/09/13 02:54:15;;;;;;;17.08;9.82;;;;;;;9.95;85.41;93154.75;5071398;28;20074;-79
2021/09/13 02:56:41;;;;;;;17.60;11.35;;;;;;;9.93;86.06;93149.06;5071290;28;20044;-81
2021/09/13 02:59:08;;;;;;;14.48;10.15;;;;;;;10.03;84.88;93161.44;5071066;28;20398;-80
2021/09/13 03:01:35;;;;;;;15.20;10.48;;;;;;;10.01;85.15;93160.84;5070934;28;20057;-80
2021/09/13 03:04:02;;;;;;;15.18;10.60;;;;;;;9.96;85.33;93163.25;5070956;28;20048;-80
2021/09/13 03:06:30;;;;;;;12.60;9.48;;;;;;;9.78;85.85;93149.34;5070268;28;20102;-80
2021/09/13 03:08:57;;;;;;;18.00;10.52;;;;;;;9.82;86.33;93159.97;5070767;28;20063;-80
2021/09/13 03:11:24;;;;;;;16.17;10.35;;;;;;;9.58;85.74;93127.16;5071116;28;20055;-80
2021/09/13 03:13:50;;;;;;;13.35;9.73;;;;;;;9.90;85.10;93162.28;5071011;28;20044;-80
2021/09/13 03:16:17;;;;;;;11.35;9.43;;;;;;;9.85;84.83;93151.84;5070651;28;20055;-79
2021/09/13 03:18:44;;;;;;;14.32;9.82;;;;;;;9.90;85.25;93154.59;5070974;28;20417;-79
2021/09/13 03:21:11;;;;;;;14.00;9.80;;;;;;;9.88;84.96;93152.25;5070487;28;20063;-80
2021/09/13 03:23:39;;;;;;;11.45;9.48;;;;;;;9.88;85.56;93169.41;5071011;28;20045;-79
2021/09/13 03:26:06;;;;;;;14.00;10.18;;;;;;;9.93;85.02;93172.16;5070778;28;20048;-79
2021/09/13 03:28:34;;;;;;;14.07;10.55;;;;;;;9.92;85.84;93167.22;5070432;28;20056;-79
2021/09/13 03:31:02;;;;;;;12.73;9.88;;;;;;;9.87;85.23;93163.47;5070949;28;20049;-79
2021/09/13 03:33:29;;;;;;;16.33;10.57;;;;;;;9.64;85.96;93138.38;5070558;28;20048;-79
2021/09/13 03:35:56;;;;;;;14.25;10.50;;;;;;;9.82;85.65;93163.31;5070474;28;20083;-79
2021/09/13 03:38:22;;;;;;;12.20;10.52;;;;;;;9.79;86.15;93168.06;5070504;28;20059;-79
2021/09/13 03:40:51;;;;;;;12.27;9.95;;;;;;;9.68;86.03;93154.91;5070463;28;20059;-79
2021/09/13 03:43:18;;;;;;;15.35;10.43;;;;;;;9.75;86.12;93165.94;5069974;28;20054;-79
2021/09/13 03:45:44;;;;;;;14.88;10.60;;;;;;;9.70;86.91;93162.41;5070042;28;20048;-79
2021/09/13 03:48:11;;;;;;;14.50;10.48;;;;;;;9.73;86.65;93167.13;5070459;28;20052;-80
2021/09/13 03:50:38;;;;;;;19.50;10.82;;;;;;;9.69;86.74;93160.81;5069783;28;20386;-79
2021/09/13 03:53:05;;;;;;;14.57;10.60;;;;;;;9.72;87.20;93178.38;5069885;28;20052;-80
2021/09/13 03:55:35;;;;;;;16.10;11.27;;;;;;;9.56;87.67;93157.34;5069967;28;20481;-80
2021/09/13 03:58:04;;;;;;;14.43;11.05;;;;;;;9.57;87.83;93168.38;5070246;28;20045;-80
2021/09/13 04:00:31;;;;;;;14.90;10.98;;;;;;;9.60;88.40;93165.41;5070292;28;20060;-80
2021/09/13 04:02:58;;;;;;;16.42;10.93;;;;;;;9.59;88.51;93176.66;5069640;28;20049;-80
2021/09/13 04:05:26;;;;;;;15.27;11.30;;;;;;;9.59;88.79;93179.22;5069574;28;20048;-80
2021/09/13 04:08:15;;;;;;;14.18;10.88;;;;;;;9.58;88.74;93181.00;5069721;28;20102;-80
2021/09/13 04:10:49;;;;;;;19.38;13.55;;;;;;;9.53;88.71;93174.91;5070034;28;20075;-80
2021/09/13 04:13:17;;;;;;;22.27;15.65;;;;;;;9.62;88.96;93186.50;5069700;28;20179;-78
2021/09/13 04:15:44;;;;;;;27.23;17.00;;;;;;;9.36;88.22;93135.13;5069905;28;20091;-81
2021/09/13 04:18:11;;;;;;;33.58;19.33;;;;;;;9.38;87.75;93126.44;5068514;28;20061;-81
2021/09/13 04:20:38;;;;;;;30.75;18.80;;;;;;;9.74;87.65;93182.31;5069248;28;20052;-81
2021/09/13 04:23:04;;;;;;;30.38;16.13;;;;;;;9.79;86.97;93186.03;5069687;28;20048;-79
2021/09/13 04:25:31;;;;;;;25.52;15.18;;;;;;;9.80;86.30;93182.47;5069350;28;20056;-79
2021/09/13 04:27:58;;;;;;;21.00;11.85;;;;;;;9.82;86.39;93188.19;5069611;28;20091;-79
2021/09/13 04:30:26;;;;;;;23.00;13.20;;;;;;;9.80;86.22;93187.59;5069675;28;20102;-79
2021/09/13 04:32:53;;;;;;;19.00;11.60;;;;;;;9.84;86.26;93191.34;5069361;28;20102;-79
2021/09/13 04:35:20;;;;;;;19.80;11.02;;;;;;;9.81;85.90;93189.19;5069247;28;20490;-79
2021/09/13 04:37:47;;;;;;;16.92;11.68;;;;;;;9.86;86.09;93194.50;5069409;28;20052;-79
2021/09/13 04:40:14;;;;;;;20.05;10.98;;;;;;;9.87;86.33;93193.50;5069226;28;20523;-79
2021/09/13 04:42:41;;;;;;;17.52;11.65;;;;;;;9.91;86.19;93192.09;5069310;28;20052;-79
2021/09/13 04:45:09;;;;;;;25.25;13.82;;;;;;;9.93;86.42;93194.44;5069290;28;20498;-79
2021/09/13 04:47:37;;;;;;;19.88;12.43;;;;;;;9.88;86.00;93182.25;5069548;28;20063;-80
2021/09/13 04:50:05;;;;;;;21.13;12.45;;;;;;;9.98;85.88;93197.19;5069244;28;20051;-79
2021/09/13 04:52:33;;;;;;;17.73;11.85;;;;;;;10.05;86.11;93197.16;5069172;28;20052;-79
2021/09/13 04:55:00;;;;;;;19.77;12.60;;;;;;;10.09;86.04;93196.53;5068950;28;20045;-79
2021/09/13 04:57:27;;;;;;;18.50;12.43;;;;;;;10.08;85.83;93192.41;5069068;28;20059;-79
2021/09/13 04:59:53;;;;;;;21.55;12.13;;;;;;;10.23;85.56;93207.50;5069187;28;20044;-80
2021/09/13 05:02:20;;;;;;;22.30;12.32;;;;;;;10.26;85.20;93203.72;5068807;28;20521;-79
2021/09/13 05:04:48;;;;;;;18.05;11.85;;;;;;;10.18;84.78;93176.53;5069283;28;20044;-79
2021/09/13 05:07:15;;;;;;;19.05;12.18;;;;;;;10.32;85.80;93202.13;5069240;28;20045;-79
2021/09/13 05:09:42;;;;;;;19.33;12.00;;;;;;;10.28;85.53;93186.38;5068896;28;20048;-79
2021/09/13 05:12:09;;;;;;;19.83;12.77;;;;;;;10.38;85.57;93196.16;5068902;28;20052;-79
2021/09/13 05:14:36;;;;;;;18.80;12.52;;;;;;;10.51;85.10;93213.28;5069074;28;20106;-79
2021/09/13 05:17:03;;;;;;;17.10;12.48;;;;;;;10.58;85.05;93215.78;5068929;28;20052;-79
2021/09/13 05:19:30;;;;;;;22.23;13.25;;;;;;;10.67;84.96;93214.53;5069204;28;20158;-79
2021/09/13 05:21:58;;;;;;;21.67;13.00;;;;;;;10.75;84.40;93222.00;5068916;28;20052;-79
2021/09/13 05:24:25;;;;;;;23.00;12.60;;;;;;;10.75;83.97;93205.78;5069113;28;20060;-78
2021/09/13 05:26:51;;;;;;;22.60;12.43;;;;;;;10.92;84.47;93224.03;5068735;28;20040;-79
2021/09/13 05:29:18;;;;;;;21.10;12.40;;;;;;;10.95;84.35;93224.41;5069004;28;20052;-79
2021/09/13 05:31:45;;;;;;;21.17;13.98;;;;;;;11.00;84.91;93228.91;5073187;28;20049;-84
2021/09/13 05:34:12;;;;;;;19.17;14.13;;;;;;;11.05;85.43;93220.53;5072851;28;20432;-79
2021/09/13 05:36:39;;;;;;;23.63;13.50;;;;;;;10.99;86.38;93211.13;5072748;28;20055;-79
2021/09/13 05:39:07;;;;;;;22.13;13.50;;;;;;;11.14;85.35;93206.44;5072940;28;20056;-79
2021/09/13 05:41:34;;;;;;;18.88;13.63;;;;;;;11.32;84.16;93221.09;5072688;28;20064;-79
2021/09/13 05:44:00;;;;;;;21.77;13.90;;;;;;;11.38;85.16;93205.81;5072318;28;20094;-79
2021/09/13 05:46:27;;;;;;;23.20;15.02;;;;;;;11.52;85.15;93209.03;5072360;28;20044;-80
2021/09/13 05:48:54;;;;;;;27.70;17.50;;;;;;;11.60;85.85;93201.00;5072632;28;20071;-79
2021/09/13 05:51:21;;;;;;;24.75;15.00;;;;;;;11.84;83.15;93214.78;5072448;28;20047;-79
2021/09/13 05:53:49;;;;;;;25.33;16.70;;;;;;;11.99;82.48;93214.38;5072646;28;20044;-79
2021/09/13 05:56:17;;;;;;;22.70;15.15;;;;;;;12.21;80.79;93221.66;5072084;28;20048;-79
2021/09/13 05:58:44;;;;;;;23.65;15.93;;;;;;;12.37;80.05;93212.50;5072485;28;20075;-79
2021/09/13 06:01:11;;;;;;;23.85;15.60;;;;;;;12.62;79.70;93219.28;5072459;28;20414;-80
2021/09/13 06:03:38;;;;;;;24.63;17.70;;;;;;;12.75;82.96;93205.44;5071852;28;20053;-80
2021/09/13 06:06:04;;;;;;;22.33;16.05;;;;;;;12.98;82.02;93214.19;5071970;28;20056;-80
2021/09/13 06:08:32;;;;;;;30.73;18.23;;;;;;;13.16;80.36;93221.03;5072288;28;20063;-81
2021/09/13 06:10:59;;;;;;;26.67;15.90;;;;;;;13.39;77.28;93213.47;5072036;28;20052;-80
2021/09/13 06:13:27;;;;;;;28.52;15.93;;;;;;;13.63;76.49;93212.47;5072247;28;20044;-80
2021/09/13 06:15:54;;;;;;;36.88;17.83;;;;;;;13.95;74.54;93213.03;5071875;28;20044;-81
2021/09/13 06:18:20;;;;;;;21.83;14.77;;;;;;;14.25;75.03;93204.25;5071674;28;20048;-81
2021/09/13 06:20:47;;;;;;;21.40;14.38;;;;;;;14.48;74.52;93215.50;5071629;28;20053;-82
2021/09/13 06:23:14;;;;;;;20.77;13.48;;;;;;;14.62;74.29;93205.66;5063624;28;20063;-81
2021/09/13 06:25:41;;;;;;;22.05;15.13;;;;;;;14.79;73.39;93196.13;5050612;28;20079;-81
2021/09/13 06:28:08;;;;;;;19.83;13.55;;;;;;;15.13;73.41;93203.03;5051078;28;20502;-81
2021/09/13 06:30:36;;;;;;;32.20;14.10;;;;;;;15.39;71.64;93203.41;5051654;28;20045;-81
2021/09/13 06:33:03;;;;;;;20.17;12.85;;;;;;;15.60;70.81;93216.59;5051743;28;20049;-81
2021/09/13 06:35:30;;;;;;;16.73;12.65;;;;;;;15.84;69.18;93195.63;5051685;28;20049;-82
2021/09/13 06:37:57;;;;;;;19.38;12.70;;;;;;;16.13;68.12;93203.22;5051422;28;20048;-81
2021/09/13 06:40:24;;;;;;;19.92;12.23;;;;;;;16.43;66.53;93205.31;5050982;28;20060;-80
2021/09/13 06:42:51;;;;;;;23.38;13.10;;;;;;;16.76;65.93;93212.31;5049972;28;20056;-82
2021/09/13 06:45:20;;;;;;;23.85;13.30;;;;;;;17.05;64.53;93215.41;5051153;28;20045;-81
2021/09/13 06:47:48;;;;;;;21.83;12.75;;;;;;;17.16;64.23;93199.88;5066319;28;20052;-81
2021/09/13 06:50:19;;;;;;;21.27;12.45;;;;;;;17.40;63.25;93208.06;5068615;28;20216;-81
2021/09/13 06:52:46;;;;;;;27.60;16.30;;;;;;;17.67;62.25;93217.53;5068138;28;20141;-81
2021/09/13 06:55:13;;;;;;;47.20;22.63;;;;;;;17.52;61.62;93215.66;5065562;28;20052;-81
2021/09/13 06:57:40;;;;;;;48.72;22.77;;;;;;;17.51;61.35;93206.31;5068085;28;20440;-81
2021/09/13 07:00:10;;;;;;;60.17;32.75;;;;;;;17.36;61.68;93207.78;5064003;28;20044;-82
2021/09/13 07:02:38;;;;;;;76.72;34.67;;;;;;;17.25;62.54;93203.56;5068335;28;20058;-82
2021/09/13 07:05:09;;;;;;;89.63;42.38;;;;;;;17.47;62.27;93218.22;5060396;28;20048;-82
2021/09/13 07:07:36;;;;;;;94.50;45.67;;;;;;;17.67;60.53;93204.56;5060730;28;20045;-82
2021/09/13 07:10:04;;;;;;;93.13;43.13;;;;;;;17.88;59.19;93223.59;5061707;28;20052;-81
2021/09/13 07:12:31;;;;;;;76.90;37.00;;;;;;;17.76;57.29;93210.03;5053844;28;20524;-81
2021/09/13 07:14:58;;;;;;;59.65;30.00;;;;;;;17.95;56.46;93225.19;5064924;28;20057;-81
2021/09/13 07:17:25;;;;;;;55.92;29.55;;;;;;;18.18;55.22;93225.81;5070493;28;20052;-82
2021/09/13 07:19:52;;;;;;;50.13;25.33;;;;;;;18.32;55.83;93220.91;5070807;28;20055;-82
2021/09/13 07:22:20;;;;;;;36.10;17.55;;;;;;;18.13;54.41;93206.56;5070589;28;20079;-82
2021/09/13 07:24:48;;;;;;;39.10;15.82;;;;;;;18.50;54.18;93220.41;5070774;28;20044;-82
2021/09/13 07:27:15;;;;;;;37.30;14.93;;;;;;;18.01;54.46;93222.34;5058125;28;20049;-81
2021/09/13 07:29:42;;;;;;;36.08;13.65;;;;;;;18.12;54.93;93188.63;5070373;28;20048;-81
2021/09/13 07:32:09;;;;;;;43.03;14.93;;;;;;;18.36;53.90;93209.72;5067705;28;20051;-81
2021/09/13 07:34:36;;;;;;;34.40;16.75;;;;;;;18.48;54.34;93214.69;5067674;28;20734;-81
2021/09/13 07:37:04;;;;;;;61.22;18.20;;;;;;;18.64;54.21;93215.47;5066152;28;20048;-81
2021/09/13 07:39:32;;;;;;;36.03;13.23;;;;;;;18.68;52.61;93194.91;5070100;28;20052;-82
2021/09/13 07:41:59;;;;;;;40.15;12.15;;;;;;;18.78;51.57;93215.72;5061852;28;20425;-82
2021/09/13 07:44:26;;;;;;;34.33;11.55;;;;;;;19.21;51.26;93218.06;5069985;28;20055;-82
2021/09/13 07:46:53;;;;;;;34.38;11.27;;;;;;;19.64;49.22;93222.13;5064390;28;20052;-82
2021/09/13 07:49:21;;;;;;;48.15;12.98;;;;;;;19.92;49.03;93206.91;5069593;28;20059;-82
2021/09/13 07:51:48;;;;;;;33.65;10.68;;;;;;;20.23;48.51;93200.78;5069166;28;20052;-82
2021/09/13 07:54:15;;;;;;;31.13;10.82;;;;;;;20.73;47.74;93205.91;5062202;28;20048;-81
2021/09/13 07:56:43;;;;;;;35.88;10.25;;;;;;;20.89;47.52;93209.22;5063971;28;20083;-82
2021/09/13 07:59:10;;;;;;;26.10;10.30;;;;;;;21.21;46.17;93218.31;5065428;28;20049;-82
2021/09/13 08:01:37;;;;;;;21.02;9.82;;;;;;;21.57;45.84;93216.41;5064144;28;20525;-82
2021/09/13 08:04:04;;;;;;;23.08;10.30;;;;;;;21.80;44.94;93204.41;5050041;28;20052;-83
2021/09/13 08:06:31;;;;;;;27.83;10.45;;;;;;;22.15;45.06;93212.88;5049906;28;20506;-82
2021/09/13 08:08:58;;;;;;;23.77;9.93;;;;;;;22.13;44.91;93201.13;5049939;28;20052;-82
2021/09/13 08:11:26;;;;;;;26.38;10.63;;;;;;;22.40;43.53;93200.47;5064976;28;20047;-82
2021/09/13 08:13:54;;;;;;;35.33;10.77;;;;;;;22.43;43.84;93188.66;5064698;28;20048;-82
2021/09/13 08:16:23;;;;;;;24.63;10.52;;;;;;;22.78;43.82;93201.53;5067695;28;20056;-83
2021/09/13 08:18:50;;;;;;;26.75;11.40;;;;;;;22.36;42.91;93181.16;5068776;28;20569;-84
2021/09/13 08:21:19;;;;;;;29.17;10.68;;;;;;;22.89;41.77;93207.38;5067929;28;20056;-83
2021/09/13 08:23:46;;;;;;;17.98;8.38;;;;;;;22.22;41.27;93209.88;5049815;28;20402;-84
2021/09/13 08:26:17;;;;;;;19.98;9.80;;;;;;;22.41;42.07;93182.94;5049440;28;20047;-87
2021/09/13 08:28:44;;;;;;;24.08;10.52;;;;;;;22.81;42.47;93188.66;5049255;28;20044;-85
2021/09/13 08:31:12;;;;;;;22.05;9.35;;;;;;;23.08;42.73;93200.25;5049040;28;20063;-84
2021/09/13 08:33:39;;;;;;;22.58;11.15;;;;;;;23.28;40.67;93181.84;5049020;28;20057;-85
2021/09/13 08:36:07;;;;;;;15.93;7.65;;;;;;;23.54;39.15;93170.91;5049368;28;20506;-85
2021/09/13 08:38:35;;;;;;;14.45;7.55;;;;;;;23.91;37.79;93190.09;5049558;28;20057;-85
2021/09/13 08:41:02;;;;;;;14.15;7.72;;;;;;;23.86;35.88;93193.63;5049113;28;20052;-84
2021/09/13 08:43:30;;;;;;;12.40;7.75;;;;;;;23.61;36.23;93140.59;5049105;28;20055;-86
2021/09/13 08:46:00;;;;;;;10.30;5.40;;;;;;;23.80;36.36;93150.19;5048927;28;20472;-85
2021/09/13 08:48:32;;;;;;;13.57;6.00;;;;;;;23.91;35.60;93174.38;5049409;28;20099;-85
2021/09/13 08:51:29;;;;;;;8.85;5.20;;;;;;;23.49;34.26;93171.78;5048642;28;20517;-86
2021/09/13 08:54:03;;;;;;;11.13;5.72;;;;;;;23.26;35.73;93142.03;5049798;28;20095;-86
2021/09/13 08:56:35;;;;;;;9.52;5.75;;;;;;;22.99;34.56;93178.41;5049123;28;20140;-89
2021/09/13 08:59:04;;;;;;;8.15;5.60;;;;;;;22.60;35.71;93182.97;5049442;28;20486;-87
2021/09/13 09:01:31;;;;;;;9.10;5.53;;;;;;;22.63;36.23;93190.22;5049382;28;20545;-87
2021/09/13 09:04:03;;;;;;;9.38;5.70;;;;;;;22.71;35.68;93177.56;5048828;28;20053;-88
2021/09/13 09:06:31;;;;;;;8.40;5.03;;;;;;;22.99;35.28;93188.13;5048681;28;20055;-88
2021/09/13 09:09:01;;;;;;;10.93;5.32;;;;;;;22.61;34.96;93142.63;5049000;28;20053;-88
2021/09/13 09:12:01;;;;;;;9.05;5.95;;;;;;;23.08;35.82;93165.41;5048660;28;20422;-86
2021/09/13 09:14:32;;;;;;;10.00;5.45;;;;;;;23.49;34.28;93169.94;5048924;28;20068;-87
2021/09/13 09:17:00;;;;;;;8.45;5.53;;;;;;;23.47;35.18;93168.69;5048483;28;20049;-88
2021/09/13 09:19:29;;;;;;;9.65;5.78;;;;;;;22.94;35.32;93160.16;5048838;28;20506;-90
2021/09/13 09:21:57;;;;;;;10.90;5.68;;;;;;;23.02;34.58;93179.66;5049017;28;20160;-86
2021/09/13 09:24:25;;;;;;;11.80;5.88;;;;;;;22.78;36.27;93146.53;5048690;28;20721;-86
2021/09/13 09:27:06;;;;;;;9.50;5.25;;;;;;;23.12;35.33;93168.22;5048677;28;20469;-87
2021/09/13 09:29:34;;;;;;;12.15;6.20;;;;;;;23.17;35.66;93173.38;5049041;28;20076;-87
2021/09/13 09:32:02;;;;;;;11.50;5.43;;;;;;;23.16;35.40;93140.38;5048839;28;20049;-85
2021/09/13 09:34:34;;;;;;;8.90;5.75;;;;;;;23.27;34.86;93157.47;5048550;28;20053;-88
2021/09/13 09:37:11;;;;;;;9.15;5.78;;;;;;;23.05;35.29;93105.75;5049004;28;20045;-88
2021/09/13 09:39:40;;;;;;;9.90;5.43;;;;;;;23.03;34.03;93158.44;5048938;28;20055;-85
2021/09/13 09:42:08;;;;;;;7.72;5.28;;;;;;;23.04;34.38;93141.63;5048733;28;20056;-84
2021/09/13 09:44:36;;;;;;;9.25;5.65;;;;;;;22.95;33.11;93132.88;5049036;28;20049;-87
2021/09/13 09:47:06;;;;;;;8.13;5.03;;;;;;;23.01;34.15;93172.88;5048603;28;20441;-86
2021/09/13 09:49:47;;;;;;;9.95;5.22;;;;;;;22.99;33.09;93127.88;5048782;28;20045;-86
2021/09/13 09:52:32;;;;;;;7.18;4.78;;;;;;;22.90;33.25;93148.69;5048857;28;20052;-87
2021/09/13 09:55:16;;;;;;;8.35;5.57;;;;;;;22.73;34.71;93157.09;5048733;28;20053;-87
2021/09/13 09:57:45;;;;;;;9.90;5.43;;;;;;;22.85;34.64;93115.50;5048688;28;20052;-86
2021/09/13 10:00:24;;;;;;;9.75;5.47;;;;;;;23.34;33.45;93152.66;5048586;28;20045;-87
2021/09/13 10:02:53;;;;;;;8.18;4.32;;;;;;;23.73;34.32;93162.91;5048628;28;20053;-85
2021/09/13 10:05:22;;;;;;;7.88;4.53;;;;;;;23.44;34.08;93150.91;5048644;28;20608;-88
2021/09/13 10:07:50;;;;;;;12.18;5.60;;;;;;;23.78;34.01;93149.69;5048377;28;20494;-85
2021/09/13 10:10:18;;;;;;;8.32;5.05;;;;;;;23.80;34.02;93147.59;5048782;28;20052;-85
2021/09/13 10:12:45;;;;;;;7.97;4.47;;;;;;;23.44;33.80;93124.69;5048394;28;20045;-87
2021/09/13 10:15:13;;;;;;;13.85;4.70;;;;;;;23.59;32.65;93142.75;5048650;28;20517;-85
2021/09/13 10:17:40;;;;;;;8.25;4.47;;;;;;;23.73;32.70;93155.84;5050716;28;20060;-86
2021/09/13 10:20:09;;;;;;;6.65;5.00;;;;;;;23.82;33.84;93132.31;5052099;28;20063;-86
2021/09/13 10:22:40;;;;;;;6.95;4.50;;;;;;;23.96;32.69;93145.41;5052053;28;20084;-86
2021/09/13 10:25:08;;;;;;;6.30;4.60;;;;;;;23.69;31.92;93106.91;5052084;28;20128;-88
2021/09/13 10:27:37;;;;;;;15.25;5.45;;;;;;;23.97;33.15;93104.22;5051880;28;20068;-89
2021/09/13 10:30:16;;;;;;;6.40;4.35;;;;;;;23.76;32.98;93081.81;5052263;28;20454;-87
2021/09/13 10:32:44;;;;;;;8.23;4.22;;;;;;;24.01;33.48;93121.69;5051445;28;20045;-90
2021/09/13 10:35:12;;;;;;;7.32;4.10;;;;;;;24.08;33.79;93123.94;5068733;28;20082;-88
2021/09/13 10:37:43;;;;;;;7.60;4.88;;;;;;;24.03;33.67;93142.38;5090178;28;20526;-88
2021/09/13 10:40:18;;;;;;;8.48;5.38;;;;;;;24.03;34.46;93150.25;5086586;28;20044;-89
2021/09/13 10:42:46;;;;;;;7.82;5.07;;;;;;;23.93;34.45;93158.34;5065091;28;20052;-87
2021/09/13 10:45:17;;;;;;;15.50;5.10;;;;;;;24.14;34.07;93142.94;5070137;28;20497;-90
2021/09/13 10:47:45;;;;;;;5.70;4.60;;;;;;;24.17;34.22;93092.50;5068033;28;20059;-88
2021/09/13 10:50:21;;;;;;;6.30;4.45;;;;;;;24.84;33.07;93147.91;5070327;28;20048;-88
2021/09/13 10:52:51;;;;;;;8.38;4.93;;;;;;;24.69;32.25;93151.69;5070436;28;20053;-90
2021/09/13 10:55:27;;;;;;;10.30;5.05;;;;;;;24.11;34.28;93104.19;5070976;28;20044;-89
2021/09/13 10:58:16;;;;;;;7.03;4.80;;;;;;;23.87;33.40;93087.63;5071074;28;20058;-88
2021/09/13 11:00:57;;;;;;;8.18;4.85;;;;;;;23.78;33.57;93059.78;5068358;28;20049;-86
2021/09/13 11:03:54;;;;;;;7.75;4.78;;;;;;;24.25;33.22;93093.66;5070891;28;20619;-87
2021/09/13 11:06:47;;;;;;;6.65;4.40;;;;;;;24.52;33.12;93142.63;5070847;28;20045;-86
2021/09/13 11:09:24;;;;;;;10.13;5.88;;;;;;;24.91;33.17;93142.25;5074689;28;20071;-93
2021/09/13 11:11:56;;;;;;;10.57;5.18;;;;;;;25.01;33.24;93136.75;5088081;28;20040;-90
2021/09/13 11:14:29;;;;;;;8.13;5.65;;;;;;;24.65;32.67;93121.81;5073477;28;20044;-92
2021/09/13 11:17:04;;;;;;;9.73;5.65;;;;;;;24.01;33.21;93018.56;5070971;28;20462;-93
2021/09/13 11:19:39;;;;;;;10.23;5.17;;;;;;;24.26;33.67;93006.72;5071556;28;20060;-95
2021/09/13 11:22:07;;;;;;;10.80;5.85;;;;;;;25.16;32.76;93135.56;5070496;28;20059;-91
2021/09/13 11:24:39;;;;;;;12.13;6.13;;;;;;;25.70;32.53;93134.69;5070871;28;20076;-94
2021/09/13 11:27:08;;;;;;;7.97;5.72;;;;;;;25.42;32.03;93128.84;5070147;28;20056;-91
2021/09/13 11:29:36;;;;;;;9.77;5.75;;;;;;;25.41;32.54;93117.53;5060734;28;20055;-90